Arviat Airport
CYEK : now visible

Airfield :











YOU CAN JOIN US ON...

 
LOGIN :

Register | Disclaimer

   EN    FR    IT 

 









Legend :    VFR   Marginal VFR   IFR   Intensive IFR   Very Intensive IFR
Visi :
Ceiling :
>= 8 km
>= 3000ft
5 to 8 km
1000 to 3000 ft
1500m to 5 km
500 to 1000 ft
800 to 1500m
200 to 500 ft
< 800m
< 200 ft
Symbols :   Thunderstorms  Fog  Heavy snow  Heavy precipitations  Wind > 20 kt






- Airport Elevation : 32 ft
- IATA code : YEK


CYEK - Arviat

CURRENT METAR :
  • 260900Z AUTO 12002KT 9SM CLR M22/M24 A3029 RMK SLP260

EXPIRED METARs :
  • 260800Z AUTO 09002KT 9SM CLR M21/M24 A3029 RMK SLP259
  • 260700Z AUTO 08004KT 9SM CLR M21/M23 A3028 RMK SLP256
  • 260600Z AUTO 11006KT 9SM CLR M22/M24 A3027 RMK SLP254

TAF TAF CYEK
Valid from the 26 at 06:00 until the 26 at 18:00 UTC


260538Z 2606/2618 08008KT P6SM FEW008
TEMPO 2606/2614 BKN008
BECMG 2608/2610 VRB03KT
FM261400 VRB03KT P6SM SCT012
TEMPO 2614/2618 BKN012
BECMG 2614/2616 22010KT RMK FCST BASED ON AUTO OBS. NXT FCST BY 261200Z



MET'MAP, your aeronautical weather chart ! - Copyright ORBIFLY December 2007 - Disclaimer

ORBIFLY MET'MAP TEAM :

Programming & Development : Alexandra Zaïnal
Concept & original design : Baudouin d'Aumeries
Assistance for programming : Marc-Olivier Méhu
Technical & hardware support : Manuel Goepfert

Contact : metmap@orbifly.com




SOURCES & CREDITS :

   NOAA       Earth
Advisory